Time;durP1;ratioP1;P1;durP2;ratioP2;P2;SDS_P1;SDS_P2;PMS_P1;PMS_P2;Temp;Humidity;BMP_temperature;BMP_pressure;BME280_temperature;BME280_humidity;BME280_pressure;Samples;Min_cycle;Max_cycle;Signal;HPM_P1;HPM_P2
2023/09/27 00:01:49;;;;;;;9.07;5.57;;;;;;;14.21;100.00;101926.44;5051501;28;20036;-52
2023/09/27 00:04:14;;;;;;;7.85;5.35;;;;;;;14.18;100.00;101931.16;5050603;28;20029;-52
2023/09/27 00:06:39;;;;;;;6.53;4.93;;;;;;;14.16;100.00;101927.75;5052303;28;20060;-51
2023/09/27 00:09:04;;;;;;;7.32;5.30;;;;;;;14.13;100.00;101936.00;5049558;28;20051;-52
2023/09/27 00:11:32;;;;;;;8.88;4.80;;;;;;;14.12;100.00;101931.59;5049548;28;20104;-54
2023/09/27 00:13:58;;;;;;;9.82;5.00;;;;;;;14.09;100.00;101931.81;5051459;28;20108;-53
2023/09/27 00:16:23;;;;;;;8.90;5.43;;;;;;;14.07;100.00;101929.25;5049654;28;20374;-53
2023/09/27 00:18:48;;;;;;;8.70;5.40;;;;;;;14.03;100.00;101928.66;5050844;28;20029;-52
2023/09/27 00:21:14;;;;;;;6.45;5.00;;;;;;;14.02;100.00;101931.44;5051544;28;20025;-51
2023/09/27 00:23:39;;;;;;;8.20;5.15;;;;;;;14.00;100.00;101931.53;5050092;28;20074;-51
2023/09/27 00:26:04;;;;;;;6.40;5.07;;;;;;;13.96;100.00;101932.75;5051121;28;20067;-52
2023/09/27 00:28:30;;;;;;;7.18;5.10;;;;;;;13.97;100.00;101926.44;5049733;28;20037;-52
2023/09/27 00:30:55;;;;;;;9.75;5.28;;;;;;;13.96;100.00;101926.56;5051506;28;20100;-53
2023/09/27 00:33:20;;;;;;;8.85;5.22;;;;;;;13.93;100.00;101919.59;5051441;28;20035;-52
2023/09/27 00:35:49;;;;;;;5.60;5.00;;;;;;;13.92;100.00;101931.25;5051459;28;20104;-53
2023/09/27 00:38:14;;;;;;;8.25;5.60;;;;;;;13.94;100.00;101936.47;5050675;28;20033;-52
2023/09/27 00:40:47;;;;;;;8.73;5.88;;;;;;;13.91;100.00;101926.88;5051283;28;20031;-52
2023/09/27 00:43:30;;;;;;;12.38;5.85;;;;;;;13.93;100.00;101921.44;5051298;28;20077;-52
2023/09/27 00:46:06;;;;;;;9.02;5.47;;;;;;;13.88;100.00;101919.09;5048648;28;20029;-54
2023/09/27 00:48:32;;;;;;;7.25;5.30;;;;;;;13.85;100.00;101922.00;5050985;28;20021;-52
2023/09/27 00:50:58;;;;;;;7.82;5.60;;;;;;;13.86;100.00;101927.22;5050685;28;20025;-52
2023/09/27 00:53:26;;;;;;;8.30;5.97;;;;;;;13.80;100.00;101916.13;5050949;28;20032;-53
2023/09/27 00:55:52;;;;;;;10.02;6.10;;;;;;;13.79;100.00;101906.41;5050986;28;20033;-51
2023/09/27 00:58:19;;;;;;;7.75;6.15;;;;;;;13.77;100.00;101919.91;5050373;28;20097;-52
2023/09/27 01:00:50;;;;;;;7.72;6.80;;;;;;;13.76;100.00;101920.84;5047490;28;20074;-52
2023/09/27 01:03:16;;;;;;;9.45;6.43;;;;;;;13.75;100.00;101916.47;5050405;28;20028;-52
2023/09/27 01:05:42;;;;;;;7.60;6.80;;;;;;;13.71;100.00;101912.31;5050252;28;20033;-52
2023/09/27 01:08:07;;;;;;;6.47;5.80;;;;;;;13.73;100.00;101917.56;5045718;28;20033;-52
2023/09/27 01:10:34;;;;;;;8.10;6.10;;;;;;;13.64;100.00;101914.59;5050707;28;20029;-53
2023/09/27 01:13:00;;;;;;;7.80;6.90;;;;;;;13.65;100.00;101920.78;5050436;28;20028;-53
2023/09/27 01:15:25;;;;;;;9.13;7.22;;;;;;;13.63;100.00;101920.03;5049899;28;20021;-53
2023/09/27 01:17:55;;;;;;;7.32;6.25;;;;;;;13.62;100.00;101913.84;5050862;28;20403;-52
2023/09/27 01:20:21;;;;;;;8.88;6.80;;;;;;;13.59;100.00;101913.19;5047595;28;20029;-52
2023/09/27 01:22:58;;;;;;;9.98;7.03;;;;;;;13.58;100.00;101903.50;5050267;28;20074;-52
2023/09/27 01:25:26;;;;;;;7.53;6.75;;;;;;;13.56;100.00;101892.94;5050763;28;20045;-52
2023/09/27 01:27:52;;;;;;;10.98;6.80;;;;;;;13.55;100.00;101880.53;5050960;28;20033;-52
2023/09/27 01:30:17;;;;;;;10.40;7.03;;;;;;;13.50;100.00;101886.22;5054298;28;20029;-52
2023/09/27 01:32:42;;;;;;;9.23;6.80;;;;;;;13.49;100.00;101883.69;5053678;28;20028;-52
2023/09/27 01:35:08;;;;;;;11.55;6.70;;;;;;;13.42;100.00;101875.25;5054320;28;20724;-52
2023/09/27 01:37:33;;;;;;;9.23;6.88;;;;;;;13.43;100.00;101884.13;5054384;28;20108;-54
2023/09/27 01:39:58;;;;;;;10.93;6.13;;;;;;;13.41;100.00;101873.56;5053404;28;20435;-52
2023/09/27 01:42:24;;;;;;;7.50;6.72;;;;;;;13.38;100.00;101872.91;5054436;28;20049;-52
2023/09/27 01:44:50;;;;;;;9.90;6.50;;;;;;;13.33;100.00;101879.44;5053643;28;20100;-52
2023/09/27 01:47:15;;;;;;;8.82;6.68;;;;;;;13.36;100.00;101886.38;5054176;28;20060;-55
2023/09/27 01:49:40;;;;;;;9.32;6.78;;;;;;;13.35;100.00;101889.16;5053670;28;20029;-55
2023/09/27 01:52:06;;;;;;;8.50;6.57;;;;;;;13.31;100.00;101889.34;5053301;28;20483;-52
2023/09/27 01:54:31;;;;;;;6.88;6.25;;;;;;;13.33;100.00;101892.75;5051434;28;20045;-55
2023/09/27 01:56:56;;;;;;;8.27;7.05;;;;;;;13.27;100.00;101887.84;5053981;28;20045;-52
2023/09/27 01:59:21;;;;;;;8.50;6.18;;;;;;;13.25;100.00;101889.75;5053462;28;20021;-55
2023/09/27 02:01:47;;;;;;;10.15;6.60;;;;;;;13.22;100.00;101889.13;5053791;28;20029;-54
2023/09/27 02:04:12;;;;;;;7.97;6.53;;;;;;;13.19;100.00;101876.00;5050535;28;20037;-55
2023/09/27 02:06:37;;;;;;;11.85;7.05;;;;;;;13.19;100.00;101892.00;5053495;28;20013;-55
2023/09/27 02:09:03;;;;;;;9.40;6.63;;;;;;;13.19;100.00;101887.56;5053440;28;20062;-55
2023/09/27 02:11:29;;;;;;;11.68;6.95;;;;;;;13.13;100.00;101883.47;5051935;28;20021;-55
2023/09/27 02:13:56;;;;;;;9.30;6.85;;;;;;;13.14;100.00;101881.69;5053738;28;20063;-52
2023/09/27 02:16:21;;;;;;;8.95;6.90;;;;;;;13.12;100.00;101878.25;5053708;28;20077;-53
2023/09/27 02:18:47;;;;;;;9.73;6.50;;;;;;;13.08;100.00;101880.28;5051636;28;20037;-54
2023/09/27 02:21:13;;;;;;;9.98;6.40;;;;;;;13.06;100.00;101890.22;5052719;28;20025;-52
2023/09/27 02:23:38;;;;;;;10.00;6.93;;;;;;;13.03;100.00;101893.09;5053449;28;20523;-52
2023/09/27 02:26:04;;;;;;;14.00;6.68;;;;;;;13.03;100.00;101895.78;5053394;28;20391;-52
2023/09/27 02:28:30;;;;;;;12.40;7.68;;;;;;;13.02;100.00;101891.38;5050621;28;20091;-55
2023/09/27 02:30:56;;;;;;;11.32;6.85;;;;;;;13.02;100.00;101896.72;5052417;28;20040;-55
2023/09/27 02:33:22;;;;;;;13.02;6.97;;;;;;;13.01;100.00;101897.69;5052565;28;20033;-51
2023/09/27 02:35:47;;;;;;;10.88;7.22;;;;;;;12.99;100.00;101896.97;5053012;28;20025;-53
2023/09/27 02:38:13;;;;;;;8.82;6.60;;;;;;;12.96;100.00;101890.00;5053162;28;20067;-53
2023/09/27 02:40:40;;;;;;;7.90;7.10;;;;;;;12.92;100.00;101904.53;5052398;28;20070;-53
2023/09/27 02:43:05;;;;;;;8.32;6.88;;;;;;;12.95;100.00;101898.13;5050946;28;20037;-55
2023/09/27 02:45:31;;;;;;;9.00;6.75;;;;;;;12.92;100.00;101893.00;5053313;28;20044;-55
2023/09/27 02:47:56;;;;;;;8.80;7.40;;;;;;;12.91;100.00;101888.63;5051463;28;20027;-55
2023/09/27 02:50:23;;;;;;;8.63;6.75;;;;;;;12.88;100.00;101889.69;5052955;28;20037;-55
2023/09/27 02:52:48;;;;;;;14.70;8.07;;;;;;;12.86;100.00;101896.09;5052353;28;20017;-54
2023/09/27 02:55:14;;;;;;;10.55;7.47;;;;;;;12.85;100.00;101902.38;5052907;28;20128;-52
2023/09/27 02:57:39;;;;;;;9.60;7.07;;;;;;;12.79;100.00;101893.00;5053040;28;20503;-52
2023/09/27 03:00:06;;;;;;;12.10;7.30;;;;;;;12.77;100.00;101887.78;5052644;28;20033;-55
2023/09/27 03:02:33;;;;;;;10.02;7.03;;;;;;;12.76;100.00;101894.06;5050896;28;20025;-54
2023/09/27 03:04:58;;;;;;;9.32;6.82;;;;;;;12.75;100.00;101892.34;5051903;28;20025;-52
2023/09/27 03:07:24;;;;;;;13.13;6.65;;;;;;;12.75;100.00;101892.34;5052766;28;20036;-55
2023/09/27 03:09:49;;;;;;;10.25;6.90;;;;;;;12.69;100.00;101878.59;5052920;28;20033;-54
2023/09/27 03:12:14;;;;;;;12.20;7.45;;;;;;;12.71;100.00;101890.03;5051568;28;20029;-54
2023/09/27 03:14:39;;;;;;;13.15;6.60;;;;;;;12.69;100.00;101891.91;5052461;28;20155;-53
2023/09/27 03:17:05;;;;;;;9.10;7.07;;;;;;;12.68;100.00;101899.06;5052572;28;20025;-51
2023/09/27 03:19:30;;;;;;;11.70;6.78;;;;;;;12.67;100.00;101886.69;5052477;28;20017;-55
2023/09/27 03:21:56;;;;;;;10.18;7.03;;;;;;;12.66;100.00;101884.16;5051378;28;20151;-55
2023/09/27 03:24:21;;;;;;;7.95;7.10;;;;;;;12.63;100.00;101897.69;5052323;28;20100;-54
2023/09/27 03:26:47;;;;;;;10.25;6.78;;;;;;;12.59;100.00;101905.06;5052085;28;20479;-54
2023/09/27 03:29:13;;;;;;;7.93;6.82;;;;;;;12.55;100.00;101899.03;5052393;28;20179;-52
2023/09/27 03:31:38;;;;;;;8.20;6.65;;;;;;;12.54;100.00;101908.03;5050817;28;20550;-54
2023/09/27 03:34:03;;;;;;;10.95;7.40;;;;;;;12.50;100.00;101913.66;5052365;28;20040;-55
2023/09/27 03:36:29;;;;;;;9.27;7.05;;;;;;;12.50;100.00;101908.31;5052107;28;20032;-52
2023/09/27 03:38:54;;;;;;;8.73;6.70;;;;;;;12.51;100.00;101916.22;5051346;28;20029;-54
2023/09/27 03:41:19;;;;;;;8.38;7.22;;;;;;;12.50;100.00;101924.31;5052211;28;20491;-52
2023/09/27 03:43:46;;;;;;;7.82;6.40;;;;;;;12.48;100.00;101916.41;5051933;28;20387;-53
2023/09/27 03:46:11;;;;;;;9.10;7.07;;;;;;;12.42;100.00;101914.16;5051779;28;20071;-52
2023/09/27 03:48:37;;;;;;;8.65;6.55;;;;;;;12.35;100.00;101903.06;5051327;28;20437;-52
2023/09/27 03:51:02;;;;;;;8.35;6.97;;;;;;;12.36;100.00;101887.94;5051817;28;20060;-52
2023/09/27 03:53:27;;;;;;;8.65;7.13;;;;;;;12.35;100.00;101884.41;5052149;28;20021;-54
2023/09/27 03:55:52;;;;;;;9.18;7.38;;;;;;;12.33;100.00;101893.47;5051645;28;20108;-52
2023/09/27 03:58:18;;;;;;;7.68;6.50;;;;;;;12.35;100.00;101894.22;5050865;28;20074;-52
2023/09/27 04:00:44;;;;;;;9.55;7.15;;;;;;;12.31;100.00;101898.06;5050707;28;20071;-52
2023/09/27 04:03:09;;;;;;;10.25;6.97;;;;;;;12.28;100.00;101904.44;5049212;28;20013;-52
2023/09/27 04:05:35;;;;;;;10.15;7.22;;;;;;;12.28;100.00;101920.41;5050301;28;20429;-52
2023/09/27 04:08:00;;;;;;;7.50;6.70;;;;;;;12.27;100.00;101920.53;5050494;28;20033;-52
2023/09/27 04:10:28;;;;;;;9.48;7.20;;;;;;;12.24;100.00;101924.25;5051894;28;20033;-51
2023/09/27 04:12:53;;;;;;;7.80;7.00;;;;;;;12.22;100.00;101931.47;5051380;28;20052;-52
2023/09/27 04:15:18;;;;;;;8.98;6.82;;;;;;;12.16;100.00;101927.41;5050758;28;20478;-51
2023/09/27 04:17:43;;;;;;;8.32;7.15;;;;;;;12.17;100.00;101920.28;5049792;28;20067;-52
2023/09/27 04:20:17;;;;;;;9.50;7.53;;;;;;;12.10;100.00;101906.50;5051394;28;20101;-52
2023/09/27 04:22:44;;;;;;;8.55;7.45;;;;;;;12.11;100.00;101920.72;5050948;28;20505;-51
2023/09/27 04:25:12;;;;;;;7.90;6.90;;;;;;;12.08;100.00;101929.72;5051313;28;20029;-49
2023/09/27 04:27:39;;;;;;;12.07;7.07;;;;;;;12.10;100.00;101942.94;5050518;28;20387;-53
2023/09/27 04:30:18;;;;;;;11.30;6.82;;;;;;;12.07;100.00;101945.81;5050218;28;20274;-52
2023/09/27 04:32:45;;;;;;;11.20;7.18;;;;;;;12.08;100.00;101943.03;5048644;28;20029;-55
2023/09/27 04:35:13;;;;;;;8.60;7.45;;;;;;;12.05;100.00;101937.91;5051155;28;20332;-54
2023/09/27 04:37:39;;;;;;;10.30;6.88;;;;;;;12.06;100.00;101952.06;5051592;28;20017;-52
2023/09/27 04:40:11;;;;;;;9.20;7.25;;;;;;;12.03;100.00;101955.81;5048076;28;20029;-52
2023/09/27 04:42:44;;;;;;;8.32;7.30;;;;;;;12.01;100.00;101949.75;5051427;28;20044;-52
2023/09/27 04:45:11;;;;;;;11.68;7.78;;;;;;;12.00;100.00;101932.03;5049937;28;20074;-54
2023/09/27 04:47:37;;;;;;;10.93;7.75;;;;;;;11.95;100.00;101913.69;5050815;28;20082;-51
2023/09/27 04:50:03;;;;;;;11.27;8.02;;;;;;;11.95;100.00;101904.88;5051159;28;20029;-52
2023/09/27 04:52:28;;;;;;;9.15;7.20;;;;;;;11.94;100.00;101921.78;5050250;28;20060;-52
2023/09/27 04:54:56;;;;;;;8.07;7.35;;;;;;;11.94;100.00;101933.31;5050718;28;20379;-50
2023/09/27 04:57:22;;;;;;;9.50;7.40;;;;;;;11.89;100.00;101937.16;5051243;28;20059;-52
2023/09/27 04:59:48;;;;;;;10.38;8.18;;;;;;;11.88;100.00;101931.00;5050273;28;20037;-53
2023/09/27 05:02:13;;;;;;;8.80;7.22;;;;;;;11.87;100.00;101929.28;5051496;28;20356;-53
2023/09/27 05:04:38;;;;;;;8.55;7.03;;;;;;;11.89;100.00;101927.41;5051154;28;20047;-52
2023/09/27 05:07:04;;;;;;;9.68;7.70;;;;;;;11.86;100.00;101938.25;5055160;28;20036;-52
2023/09/27 05:09:30;;;;;;;9.45;7.25;;;;;;;11.84;100.00;101937.50;5054201;28;20547;-53
2023/09/27 05:11:55;;;;;;;8.85;7.72;;;;;;;11.85;100.00;101931.19;5054019;28;20172;-52
2023/09/27 05:14:20;;;;;;;9.02;7.72;;;;;;;11.84;100.00;101913.53;5054532;28;20058;-53
2023/09/27 05:16:46;;;;;;;10.35;7.80;;;;;;;11.83;100.00;101909.16;5053788;28;20068;-52
2023/09/27 05:19:11;;;;;;;8.70;7.78;;;;;;;11.83;100.00;101910.00;5054659;28;20471;-54
2023/09/27 05:21:38;;;;;;;9.13;7.40;;;;;;;11.80;100.00;101907.53;5054172;28;20029;-54
2023/09/27 05:24:03;;;;;;;8.60;7.53;;;;;;;11.82;100.00;101910.09;5054307;28;20131;-53
2023/09/27 05:26:28;;;;;;;7.63;6.88;;;;;;;11.82;100.00;101907.44;5053273;28;20037;-54
2023/09/27 05:28:55;;;;;;;12.82;7.68;;;;;;;11.81;100.00;101906.59;5053674;28;20483;-53
2023/09/27 05:31:20;;;;;;;8.35;6.78;;;;;;;11.82;100.00;101916.28;5053923;28;20029;-54
2023/09/27 05:33:45;;;;;;;8.65;7.25;;;;;;;11.84;100.00;101919.72;5054532;28;20159;-52
2023/09/27 05:36:11;;;;;;;8.23;7.30;;;;;;;11.80;100.00;101914.66;5054549;28;20028;-52
2023/09/27 05:38:36;;;;;;;8.93;7.18;;;;;;;11.80;100.00;101922.66;5053449;28;20380;-53
2023/09/27 05:41:01;;;;;;;10.77;7.20;;;;;;;11.84;100.00;101934.84;5054531;28;20482;-54
2023/09/27 05:43:26;;;;;;;7.68;6.55;;;;;;;11.83;100.00;101919.81;5053570;28;20470;-52
2023/09/27 05:45:52;;;;;;;7.13;6.38;;;;;;;11.83;100.00;101909.16;5051265;28;20414;-53
2023/09/27 05:48:17;;;;;;;9.77;7.30;;;;;;;11.78;100.00;101905.94;5054035;28;20132;-52
2023/09/27 05:50:46;;;;;;;10.20;7.35;;;;;;;11.76;100.00;101907.84;5054162;28;20391;-52
2023/09/27 05:53:12;;;;;;;11.75;7.45;;;;;;;11.77;100.00;101898.91;5045930;28;20032;-51
2023/09/27 05:55:40;;;;;;;12.13;7.10;;;;;;;11.77;100.00;101894.41;5052252;28;20409;-51
2023/09/27 05:58:05;;;;;;;10.15;7.25;;;;;;;11.77;100.00;101894.41;5042406;28;20030;-51
2023/09/27 06:00:38;;;;;;;9.73;7.18;;;;;;;11.78;100.00;101901.47;5040230;28;20034;-51
2023/09/27 06:03:07;;;;;;;12.77;7.20;;;;;;;11.78;100.00;101906.78;5049028;28;20025;-52
2023/09/27 06:05:32;;;;;;;;;;;;;;;11.87;100.00;101900.00;5046734;28;20025;-51
2023/09/27 06:07:58;;;;;;;8.32;7.22;;;;;;;11.80;100.00;101896.03;5046232;28;19924;-51
2023/09/27 06:10:24;;;;;;;11.15;7.80;;;;;;;11.80;100.00;101893.38;5044350;28;20040;-52
2023/09/27 06:12:50;;;;;;;9.45;7.57;;;;;;;11.79;100.00;101897.84;5043021;28;20038;-53
2023/09/27 06:15:17;;;;;;;14.35;7.65;;;;;;;11.80;100.00;101894.22;5043848;28;20107;-50
2023/09/27 06:17:43;;;;;;;11.23;8.75;;;;;;;11.84;100.00;101903.72;5052643;28;20123;-51
2023/09/27 06:20:19;;;;;;;15.65;8.57;;;;;;;11.86;100.00;101895.66;5050648;28;20143;-50
2023/09/27 06:22:47;;;;;;;18.50;8.88;;;;;;;11.89;100.00;101884.81;5052032;28;20028;-51
2023/09/27 06:25:12;;;;;;;32.35;9.93;;;;;;;11.93;100.00;101878.34;5049961;28;20037;-51
2023/09/27 06:27:39;;;;;;;29.00;9.60;;;;;;;11.99;100.00;101880.59;5049814;28;20028;-54
2023/09/27 06:30:07;;;;;;;20.23;9.07;;;;;;;12.03;100.00;101875.94;5044623;28;20022;-51
2023/09/27 06:32:34;;;;;;;20.30;9.63;;;;;;;12.09;100.00;101877.31;5015344;28;20025;-51
2023/09/27 06:34:59;;;;;;;31.13;10.63;;;;;;;12.18;100.00;101874.91;5043125;28;20024;-52
2023/09/27 06:37:24;;;;;;;17.08;9.20;;;;;;;12.27;100.00;101881.41;5048597;28;20031;-51
2023/09/27 06:39:50;;;;;;;14.23;10.15;;;;;;;12.34;100.00;101882.72;5048557;28;20110;-51
2023/09/27 06:42:15;;;;;;;15.38;9.52;;;;;;;12.40;100.00;101887.63;5049458;28;20029;-51
2023/09/27 06:44:41;;;;;;;15.52;10.52;;;;;;;12.51;100.00;101886.06;5051581;28;20020;-52
2023/09/27 06:47:06;;;;;;;20.42;10.68;;;;;;;12.58;100.00;101887.34;5048696;28;20580;-53
2023/09/27 06:49:32;;;;;;;13.00;10.20;;;;;;;12.69;100.00;101895.47;5046563;28;20029;-53
2023/09/27 06:51:57;;;;;;;17.20;10.63;;;;;;;12.74;100.00;101900.47;5045993;28;20499;-52
2023/09/27 06:54:22;;;;;;;16.33;10.68;;;;;;;12.82;100.00;101910.59;5048948;28;20021;-53
2023/09/27 06:56:48;;;;;;;16.17;10.15;;;;;;;12.88;100.00;101903.03;5051138;28;20498;-51
2023/09/27 06:59:13;;;;;;;16.98;10.27;;;;;;;12.96;100.00;101903.34;5049045;28;20207;-53
2023/09/27 07:01:38;;;;;;;15.98;10.38;;;;;;;13.03;100.00;101895.78;5048100;28;20483;-52
2023/09/27 07:04:04;;;;;;;16.63;10.20;;;;;;;13.09;100.00;101895.34;5054691;28;20024;-51
2023/09/27 07:06:29;;;;;;;14.68;10.52;;;;;;;13.17;100.00;101886.78;5044844;28;20036;-53
2023/09/27 07:08:57;;;;;;;16.25;10.45;;;;;;;13.23;100.00;101880.19;5048493;28;20029;-51
2023/09/27 07:11:23;;;;;;;12.07;9.73;;;;;;;13.30;100.00;101887.59;5051982;28;20047;-51
2023/09/27 07:13:48;;;;;;;15.95;10.68;;;;;;;13.36;100.00;101891.72;5051905;28;20356;-51
2023/09/27 07:16:25;;;;;;;13.38;9.55;;;;;;;13.43;100.00;101892.13;5050225;28;20545;-53
2023/09/27 07:18:51;;;;;;;16.30;9.68;;;;;;;13.48;100.00;101900.66;5051928;28;20071;-54
2023/09/27 07:21:19;;;;;;;17.23;10.60;;;;;;;13.53;100.00;101897.66;5051278;28;20513;-52
2023/09/27 07:23:45;;;;;;;14.25;10.00;;;;;;;13.58;100.00;101895.50;5050848;28;20192;-54
2023/09/27 07:26:10;;;;;;;17.33;10.18;;;;;;;13.62;100.00;101899.63;5051436;28;20544;-55
2023/09/27 07:28:35;;;;;;;20.65;10.00;;;;;;;13.66;100.00;101904.66;5051749;28;20518;-55
2023/09/27 07:31:00;;;;;;;19.20;10.77;;;;;;;13.72;100.00;101902.50;5051124;28;20024;-55
2023/09/27 07:33:26;;;;;;;14.55;9.48;;;;;;;13.76;100.00;101906.66;5042761;28;20104;-54
2023/09/27 07:35:52;;;;;;;14.35;10.13;;;;;;;13.80;100.00;101913.47;5050032;28;20025;-53
2023/09/27 07:38:18;;;;;;;14.60;10.10;;;;;;;13.85;100.00;101906.81;5050742;28;20021;-53
2023/09/27 07:40:48;;;;;;;22.27;9.65;;;;;;;13.90;100.00;101901.13;5050277;28;20047;-52
2023/09/27 07:43:14;;;;;;;15.40;10.35;;;;;;;13.99;100.00;101902.25;5050594;28;20045;-55
2023/09/27 07:45:42;;;;;;;17.40;10.05;;;;;;;14.07;100.00;101899.88;5048144;28;20025;-53
2023/09/27 07:48:08;;;;;;;12.32;10.02;;;;;;;14.14;100.00;101890.47;5051388;28;20479;-53
2023/09/27 07:50:37;;;;;;;14.00;10.13;;;;;;;14.20;100.00;101900.66;5051949;28;20024;-52
2023/09/27 07:53:09;;;;;;;15.30;9.68;;;;;;;14.23;100.00;101908.44;5051532;28;20029;-56
2023/09/27 07:55:43;;;;;;;12.02;9.88;;;;;;;14.33;100.00;101913.13;5051782;28;20028;-53
2023/09/27 07:58:09;;;;;;;17.38;9.85;;;;;;;14.41;100.00;101906.22;5049083;28;20069;-55
2023/09/27 08:00:35;;;;;;;16.67;10.52;;;;;;;14.53;100.00;101919.63;5049789;28;20502;-55
2023/09/27 08:03:02;;;;;;;15.38;9.90;;;;;;;14.65;100.00;101916.03;5047698;28;20067;-53
2023/09/27 08:05:27;;;;;;;14.98;9.50;;;;;;;14.79;100.00;101914.97;5050532;28;20024;-52
2023/09/27 08:07:53;;;;;;;13.13;10.00;;;;;;;14.84;100.00;101904.78;5049210;28;20398;-52
2023/09/27 08:10:18;;;;;;;15.27;9.50;;;;;;;15.07;100.00;101913.69;5048886;28;20483;-52
2023/09/27 08:12:44;;;;;;;12.52;9.20;;;;;;;15.20;100.00;101918.91;5051172;28;20107;-52
2023/09/27 08:15:12;;;;;;;18.23;9.80;;;;;;;15.31;100.00;101910.88;5051111;28;20051;-52
2023/09/27 08:17:38;;;;;;;15.95;9.73;;;;;;;15.53;100.00;101911.81;5051574;28;20505;-52
2023/09/27 08:20:09;;;;;;;12.20;9.77;;;;;;;15.74;100.00;101928.00;5051812;28;20025;-52
2023/09/27 08:22:35;;;;;;;17.50;9.93;;;;;;;15.87;100.00;101936.75;5050548;28;20029;-54
2023/09/27 08:25:04;;;;;;;20.20;10.10;;;;;;;16.00;100.00;101936.59;5051531;28;20383;-53
2023/09/27 08:27:29;;;;;;;23.75;10.50;;;;;;;16.16;100.00;101924.63;5051042;28;20066;-55
2023/09/27 08:29:55;;;;;;;16.65;10.35;;;;;;;16.38;100.00;101934.38;5049347;28;20045;-53
2023/09/27 08:32:20;;;;;;;16.95;10.05;;;;;;;16.67;100.00;101931.06;5049357;28;20040;-52
2023/09/27 08:34:46;;;;;;;20.35;10.55;;;;;;;16.80;100.00;101932.59;5050306;28;20471;-53
2023/09/27 08:37:11;;;;;;;18.00;10.43;;;;;;;17.12;100.00;101942.41;5048950;28;20435;-54
2023/09/27 08:39:38;;;;;;;12.55;9.90;;;;;;;17.32;100.00;101929.03;5049658;28;20471;-56
2023/09/27 08:42:03;;;;;;;18.55;10.50;;;;;;;17.60;100.00;101940.03;5055159;28;20052;-55
2023/09/27 08:44:31;;;;;;;18.13;11.15;;;;;;;17.84;100.00;101942.38;5054427;28;20064;-56
2023/09/27 08:46:57;;;;;;;18.65;10.07;;;;;;;17.98;100.00;101927.69;5055319;28;20163;-55
2023/09/27 08:49:23;;;;;;;14.93;9.52;;;;;;;18.16;99.19;101917.09;5054209;28;20108;-55
2023/09/27 08:51:50;;;;;;;13.95;9.15;;;;;;;18.27;97.54;101919.66;5055128;28;20037;-53
2023/09/27 08:54:17;;;;;;;11.00;8.73;;;;;;;18.45;95.11;101917.06;5050890;28;20120;-52
2023/09/27 08:56:48;;;;;;;12.25;7.88;;;;;;;18.74;94.59;101916.22;5046820;28;20514;-54
2023/09/27 08:59:15;;;;;;;13.02;8.27;;;;;;;19.02;91.48;101925.22;5053877;28;20052;-53
2023/09/27 09:01:43;;;;;;;11.98;7.88;;;;;;;19.26;92.08;101913.94;5054305;28;20114;-55
2023/09/27 09:04:09;;;;;;;11.15;7.78;;;;;;;19.47;87.98;101921.78;5049822;28;20025;-53
2023/09/27 09:06:35;;;;;;;10.02;7.38;;;;;;;19.60;87.59;101924.97;5055151;28;20537;-55
2023/09/27 09:09:10;;;;;;;10.15;6.88;;;;;;;19.60;86.63;101919.56;5054889;28;20025;-55
2023/09/27 09:11:48;;;;;;;9.25;7.03;;;;;;;19.67;86.78;101908.16;5050787;28;20356;-56
2023/09/27 09:14:22;;;;;;;8.57;6.83;;;;;;;19.74;85.34;101904.72;5054745;28;20028;-57
2023/09/27 09:16:52;;;;;;;10.00;6.75;;;;;;;19.82;84.06;101912.09;5051395;28;20507;-56
2023/09/27 09:19:24;;;;;;;11.73;6.07;;;;;;;19.89;84.68;101915.88;5053349;28;20163;-55
2023/09/27 09:22:02;;;;;;;9.10;6.30;;;;;;;19.99;85.61;101909.56;5054015;28;20114;-55
2023/09/27 09:24:28;;;;;;;9.63;5.88;;;;;;;20.01;82.79;101907.56;5054806;28;20046;-57
2023/09/27 09:27:07;;;;;;;9.52;5.80;;;;;;;20.05;83.61;101915.19;5049715;28;20119;-54
2023/09/27 09:29:48;;;;;;;;;;;;;;;20.21;88.04;101902.84;5055512;28;20063;-52
2023/09/27 09:32:19;;;;;;;10.30;6.15;;;;;;;20.21;81.40;101900.16;5052985;28;20133;-50
2023/09/27 09:34:54;;;;;;;10.68;6.45;;;;;;;20.23;82.18;101901.69;5054477;28;20033;-52
2023/09/27 09:37:33;;;;;;;9.18;5.60;;;;;;;20.23;80.89;101898.16;5051809;28;20036;-51
2023/09/27 09:40:14;;;;;;;11.02;6.47;;;;;;;20.29;81.90;101892.13;5053511;28;20036;-51
2023/09/27 09:42:41;;;;;;;10.10;6.45;;;;;;;20.37;80.50;101888.63;5054252;28;20502;-53
2023/09/27 09:45:08;;;;;;;7.95;6.22;;;;;;;20.45;80.37;101888.69;5052180;28;20152;-51
2023/09/27 09:47:35;;;;;;;9.38;6.63;;;;;;;20.64;79.69;101887.72;5050302;28;20111;-51
2023/09/27 09:50:05;;;;;;;14.55;6.72;;;;;;;20.70;79.17;101876.28;5050816;28;20029;-51
2023/09/27 09:52:31;;;;;;;8.65;6.10;;;;;;;20.82;77.30;101872.28;5052763;28;20017;-55
2023/09/27 09:54:57;;;;;;;8.93;5.60;;;;;;;21.01;78.55;101859.56;5051866;28;20084;-55
2023/09/27 09:57:43;;;;;;;9.63;6.47;;;;;;;21.08;79.65;101860.59;5051472;28;20025;-55
2023/09/27 10:00:25;;;;;;;10.38;6.93;;;;;;;21.21;75.36;101861.00;5050005;28;20067;-55
2023/09/27 10:03:02;;;;;;;9.52;6.90;;;;;;;21.39;76.88;101860.06;5047962;28;20033;-52
2023/09/27 10:05:32;;;;;;;11.50;6.80;;;;;;;21.70;74.85;101852.22;5052934;28;20123;-56
2023/09/27 10:07:59;;;;;;;10.20;6.60;;;;;;;21.73;72.05;101857.31;5051504;28;20160;-53
2023/09/27 10:10:24;;;;;;;8.27;6.25;;;;;;;21.84;73.11;101858.81;5050789;28;20090;-55
2023/09/27 10:12:52;;;;;;;7.65;6.68;;;;;;;21.84;72.92;101858.81;5042695;28;20025;-56
2023/09/27 10:15:22;;;;;;;9.38;6.32;;;;;;;21.96;72.00;101864.75;5042123;28;20029;-55
2023/09/27 10:17:47;;;;;;;10.85;6.47;;;;;;;22.11;70.95;101881.16;5039401;28;20087;-54
2023/09/27 10:20:19;;;;;;;11.52;6.40;;;;;;;22.26;74.24;101867.81;5042973;28;20030;-55
2023/09/27 10:22:50;;;;;;;8.63;5.65;;;;;;;22.38;70.43;101866.47;5045930;28;20522;-52
2023/09/27 10:25:24;;;;;;;10.07;6.18;;;;;;;22.59;71.60;101848.84;5045011;28;20087;-58
2023/09/27 10:28:15;;;;;;;9.38;6.80;;;;;;;22.60;70.35;101835.13;5048316;28;20464;-55
2023/09/27 10:30:40;;;;;;;10.73;6.28;;;;;;;22.58;68.11;101831.75;5049096;28;20031;-56
2023/09/27 10:33:32;;;;;;;11.13;6.07;;;;;;;22.73;72.25;101842.69;5052234;28;20115;-55
2023/09/27 10:36:00;;;;;;;10.13;6.07;;;;;;;22.67;67.75;101846.97;5049430;28;20127;-56
2023/09/27 10:38:48;;;;;;;9.80;6.22;;;;;;;22.84;69.84;101839.63;5052769;28;20048;-56
2023/09/27 10:41:32;;;;;;;12.18;6.90;;;;;;;23.02;69.74;101831.28;5049699;28;20051;-56
2023/09/27 10:43:58;;;;;;;10.38;6.75;;;;;;;23.02;64.58;101828.56;5052336;28;20053;-55
2023/09/27 10:46:24;;;;;;;8.98;6.55;;;;;;;23.15;65.59;101819.03;5046664;28;20047;-56
2023/09/27 10:48:56;;;;;;;8.23;5.65;;;;;;;23.12;64.70;101814.84;5048620;28;20094;-55
2023/09/27 10:51:25;;;;;;;7.82;6.13;;;;;;;23.16;64.00;101812.59;5048624;28;20021;-55
2023/09/27 10:53:50;;;;;;;9.02;5.70;;;;;;;23.07;63.28;101803.69;5048964;28;20528;-54
2023/09/27 10:56:16;;;;;;;8.93;5.70;;;;;;;23.13;64.99;101794.81;5048329;28;20014;-56
2023/09/27 10:58:49;;;;;;;7.05;5.90;;;;;;;23.28;64.91;101792.19;5047177;28;20043;-56
2023/09/27 11:01:19;;;;;;;9.50;6.20;;;;;;;23.43;63.96;101795.84;5044167;28;20115;-56
2023/09/27 11:03:44;;;;;;;8.80;5.80;;;;;;;23.51;65.60;101802.25;5045477;28;20033;-52
2023/09/27 11:06:11;;;;;;;8.27;4.95;;;;;;;23.56;61.40;101795.25;5048879;28;20044;-55
2023/09/27 11:08:37;;;;;;;7.97;4.88;;;;;;;23.57;60.95;101788.81;5050345;28;20082;-57
2023/09/27 11:11:06;;;;;;;7.97;5.03;;;;;;;23.51;63.70;101781.38;5052069;28;20017;-56
2023/09/27 11:13:32;;;;;;;6.30;4.65;;;;;;;23.66;65.47;101784.16;5050387;28;20060;-57
2023/09/27 11:16:13;;;;;;;8.90;5.03;;;;;;;23.78;64.86;101785.44;5050471;28;20029;-55